Time;durP1;ratioP1;P1;durP2;ratioP2;P2;SDS_P1;SDS_P2;PMS_P1;PMS_P2;Temp;Humidity;BMP_temperature;BMP_pressure;BME280_temperature;BME280_humidity;BME280_pressure;Samples;Min_cycle;Max_cycle;Signal;HPM_P1;HPM_P2
2023/12/21 00:02:21;;;;;;;4.47;2.70;;;;;;;;;;4990556;28;20215;-77
2023/12/21 00:04:49;;;;;;;4.43;2.80;;;;;;;;;;4987960;28;20183;-76
2023/12/21 00:07:15;;;;;;;4.93;2.60;;;;;;;;;;4986812;28;20190;-76
2023/12/21 00:09:41;;;;;;;6.17;3.00;;;;;;;;;;4985909;28;20690;-76
2023/12/21 00:12:07;;;;;;;4.00;2.87;;;;;;;;;;4978265;28;20710;-76
2023/12/21 00:14:34;;;;;;;4.20;2.70;;;;;;;;;;4984717;28;20282;-79
2023/12/21 00:17:00;;;;;;;4.90;2.77;;;;;;;;;;4984698;28;20642;-76
2023/12/21 00:19:26;;;;;;;3.57;2.50;;;;;;;;;;4980367;28;20188;-77
2023/12/21 00:21:53;;;;;;;5.87;3.00;;;;;;;;;;4986579;28;20341;-76
2023/12/21 00:24:19;;;;;;;6.57;2.97;;;;;;;;;;4983644;28;20184;-76
2023/12/21 00:26:45;;;;;;;7.23;3.10;;;;;;;;;;4989841;28;20711;-76
2023/12/21 00:29:13;;;;;;;3.40;2.40;;;;;;;;;;4989182;28;20194;-76
2023/12/21 00:31:39;;;;;;;4.37;2.90;;;;;;;;;;4989289;28;20695;-76
2023/12/21 00:34:06;;;;;;;4.77;2.73;;;;;;;;;;4989421;28;20184;-76
2023/12/21 00:36:32;;;;;;;6.10;3.00;;;;;;;;;;4990563;28;20180;-75
2023/12/21 00:38:58;;;;;;;4.43;2.57;;;;;;;;;;4985875;28;20203;-76
2023/12/21 00:41:24;;;;;;;3.23;2.40;;;;;;;;;;4968433;28;20230;-76
2023/12/21 00:43:50;;;;;;;5.67;2.87;;;;;;;;;;4989686;28;20190;-77
2023/12/21 00:46:17;;;;;;;4.20;2.60;;;;;;;;;;4992626;28;20191;-76
2023/12/21 00:48:43;;;;;;;3.67;2.50;;;;;;;;;;4988006;28;20552;-76
2023/12/21 00:51:09;;;;;;;4.30;2.50;;;;;;;;;;4985071;28;20402;-75
2023/12/21 00:53:35;;;;;;;4.10;2.40;;;;;;;;;;4983305;28;20275;-77
2023/12/21 00:56:02;;;;;;;4.30;2.40;;;;;;;;;;4967028;28;20211;-77
2023/12/21 00:58:28;;;;;;;2.73;2.00;;;;;;;;;;4987755;28;20191;-77
2023/12/21 01:00:55;;;;;;;2.33;1.87;;;;;;;;;;4988693;28;20207;-77
2023/12/21 01:03:22;;;;;;;3.07;2.10;;;;;;;;;;4980219;28;20184;-77
2023/12/21 01:05:48;;;;;;;2.90;2.10;;;;;;;;;;4985316;28;20222;-78
2023/12/21 01:08:14;;;;;;;3.17;1.90;;;;;;;;;;4984702;28;20267;-77
2023/12/21 01:10:40;;;;;;;3.23;2.10;;;;;;;;;;4985930;28;20200;-78
2023/12/21 01:13:06;;;;;;;2.47;1.97;;;;;;;;;;4989743;28;20265;-77
2023/12/21 01:15:33;;;;;;;2.00;1.80;;;;;;;;;;4985735;28;20517;-77
2023/12/21 01:17:59;;;;;;;4.63;2.00;;;;;;;;;;4986166;28;20180;-77
2023/12/21 01:20:25;;;;;;;2.80;1.90;;;;;;;;;;4970471;28;20270;-77
2023/12/21 01:22:51;;;;;;;3.23;1.90;;;;;;;;;;4987418;28;20191;-77
2023/12/21 01:25:17;;;;;;;2.30;1.67;;;;;;;;;;4986282;28;20303;-77
2023/12/21 01:27:43;;;;;;;3.20;2.00;;;;;;;;;;4988622;28;20191;-78
2023/12/21 01:30:10;;;;;;;2.33;1.97;;;;;;;;;;4988002;28;20215;-77
2023/12/21 01:32:36;;;;;;;2.60;1.73;;;;;;;;;;4985742;28;20221;-77
2023/12/21 01:35:02;;;;;;;1.73;1.60;;;;;;;;;;4984270;28;20187;-77
2023/12/21 01:37:28;;;;;;;3.60;1.90;;;;;;;;;;4986073;28;20188;-77
2023/12/21 01:39:54;;;;;;;2.10;1.70;;;;;;;;;;4968103;28;20671;-77
2023/12/21 01:42:20;;;;;;;3.17;2.00;;;;;;;;;;4978763;28;20227;-77
2023/12/21 01:44:46;;;;;;;2.73;2.10;;;;;;;;;;4986582;28;20176;-77
2023/12/21 01:47:13;;;;;;;3.07;1.87;;;;;;;;;;4982456;28;20275;-77
2023/12/21 01:49:40;;;;;;;3.67;2.00;;;;;;;;;;4980975;28;20176;-77
2023/12/21 01:52:07;;;;;;;3.80;1.97;;;;;;;;;;4986257;28;20209;-77
2023/12/21 01:54:34;;;;;;;1.90;1.60;;;;;;;;;;4987671;28;20294;-77
2023/12/21 01:57:00;;;;;;;2.13;1.70;;;;;;;;;;4986706;28;20180;-77
2023/12/21 01:59:27;;;;;;;2.57;1.90;;;;;;;;;;4985905;28;20192;-77
2023/12/21 02:01:53;;;;;;;1.57;1.47;;;;;;;;;;4987817;28;20683;-78
2023/12/21 02:04:19;;;;;;;3.50;1.90;;;;;;;;;;4984579;28;20179;-77
2023/12/21 02:06:45;;;;;;;2.43;1.80;;;;;;;;;;4985342;28;20207;-78
2023/12/21 02:09:13;;;;;;;2.00;1.73;;;;;;;;;;4986941;28;20275;-77
2023/12/21 02:11:39;;;;;;;2.03;1.73;;;;;;;;;;4982226;28;20210;-77
2023/12/21 02:14:05;;;;;;;2.67;1.90;;;;;;;;;;4986225;28;20589;-77
2023/12/21 02:16:35;;;;;;;2.97;1.53;;;;;;;;;;4999582;28;20198;-77
2023/12/21 02:19:02;;;;;;;2.43;1.80;;;;;;;;;;4987870;28;20648;-77
2023/12/21 02:21:30;;;;;;;2.07;1.50;;;;;;;;;;4984827;28;20208;-77
2023/12/21 02:23:57;;;;;;;3.07;1.90;;;;;;;;;;4984887;28;20192;-77
2023/12/21 02:26:24;;;;;;;2.20;1.70;;;;;;;;;;4987206;28;20710;-77
2023/12/21 02:28:51;;;;;;;2.37;1.67;;;;;;;;;;4982286;28;20251;-78
2023/12/21 02:31:17;;;;;;;2.50;1.67;;;;;;;;;;4985693;28;20294;-77
2023/12/21 02:33:43;;;;;;;2.13;1.80;;;;;;;;;;4988200;28;20191;-77
2023/12/21 02:36:09;;;;;;;1.73;1.50;;;;;;;;;;4983313;28;20188;-77
2023/12/21 02:38:35;;;;;;;3.13;1.57;;;;;;;;;;4979712;28;20527;-77
2023/12/21 02:41:01;;;;;;;2.27;1.83;;;;;;;;;;4969119;28;20711;-77
2023/12/21 02:43:28;;;;;;;2.47;1.70;;;;;;;;;;4984219;28;20191;-77
2023/12/21 02:45:54;;;;;;;1.57;1.47;;;;;;;;;;4988122;28;20184;-77
2023/12/21 02:48:20;;;;;;;3.30;1.53;;;;;;;;;;4978735;28;20188;-77
2023/12/21 02:50:46;;;;;;;2.43;1.60;;;;;;;;;;4990535;28;20210;-77
2023/12/21 02:53:12;;;;;;;1.63;1.50;;;;;;;;;;4991344;28;20270;-79
2023/12/21 02:55:38;;;;;;;1.90;1.30;;;;;;;;;;4988129;28;20322;-78
2023/12/21 02:58:05;;;;;;;1.87;1.50;;;;;;;;;;4989379;28;20192;-77
2023/12/21 03:00:31;;;;;;;2.57;1.40;;;;;;;;;;4991647;28;20196;-77
2023/12/21 03:02:57;;;;;;;1.70;1.40;;;;;;;;;;4997678;28;20195;-77
2023/12/21 03:05:23;;;;;;;1.93;1.50;;;;;;;;;;4989003;28;20202;-77
2023/12/21 03:07:49;;;;;;;2.27;1.50;;;;;;;;;;4991465;28;20188;-77
2023/12/21 03:10:15;;;;;;;2.57;1.50;;;;;;;;;;4986195;28;20724;-78
2023/12/21 03:12:42;;;;;;;2.43;1.67;;;;;;;;;;4989301;28;20238;-77
2023/12/21 03:15:08;;;;;;;2.23;1.57;;;;;;;;;;4969492;28;20676;-77
2023/12/21 03:17:34;;;;;;;2.00;1.50;;;;;;;;;;4991202;28;20188;-77
2023/12/21 03:20:01;;;;;;;1.97;1.40;;;;;;;;;;4984657;28;20201;-77
2023/12/21 03:22:27;;;;;;;1.97;1.47;;;;;;;;;;4986707;28;20330;-79
2023/12/21 03:24:53;;;;;;;1.80;1.60;;;;;;;;;;4986466;28;20207;-79
2023/12/21 03:27:19;;;;;;;2.30;1.50;;;;;;;;;;4989047;28;20604;-77
2023/12/21 03:29:46;;;;;;;2.43;1.60;;;;;;;;;;4987912;28;20291;-77
2023/12/21 03:32:12;;;;;;;1.77;1.50;;;;;;;;;;4990911;28;20179;-78
2023/12/21 03:34:38;;;;;;;1.70;1.40;;;;;;;;;;4986088;28;20196;-77
2023/12/21 03:37:04;;;;;;;5.93;1.90;;;;;;;;;;4986957;28;20776;-77
2023/12/21 03:39:30;;;;;;;2.53;1.83;;;;;;;;;;4986119;28;20191;-77
2023/12/21 03:41:56;;;;;;;1.70;1.40;;;;;;;;;;4985196;28;20207;-77
2023/12/21 03:44:22;;;;;;;1.57;1.37;;;;;;;;;;4987888;28;20191;-77
2023/12/21 03:46:49;;;;;;;2.00;1.43;;;;;;;;;;4990266;28;20668;-77
2023/12/21 03:49:15;;;;;;;2.07;1.40;;;;;;;;;;4986692;28;20195;-77
2023/12/21 03:51:41;;;;;;;1.60;1.50;;;;;;;;;;4985078;28;20523;-77
2023/12/21 03:54:07;;;;;;;1.73;1.20;;;;;;;;;;4988858;28;20275;-77
2023/12/21 03:56:33;;;;;;;1.40;1.30;;;;;;;;;;4989040;28;20195;-77
2023/12/21 03:58:59;;;;;;;2.17;1.27;;;;;;;;;;4987406;28;20275;-77
2023/12/21 04:01:31;;;;;;;1.83;1.40;;;;;;;;;;4985016;28;20243;-78
2023/12/21 04:03:57;;;;;;;1.90;1.47;;;;;;;;;;4984806;28;20216;-77
2023/12/21 04:06:23;;;;;;;1.93;1.50;;;;;;;;;;4984594;28;20194;-77
2023/12/21 04:08:52;;;;;;;3.10;1.50;;;;;;;;;;4979235;28;20187;-78
2023/12/21 04:11:18;;;;;;;2.77;1.70;;;;;;;;;;4983124;28;20243;-79
2023/12/21 04:13:47;;;;;;;1.50;1.40;;;;;;;;;;4969771;28;20228;-77
2023/12/21 04:16:13;;;;;;;11.13;6.10;;;;;;;;;;4989450;28;20230;-77
2023/12/21 04:18:39;;;;;;;2.47;1.70;;;;;;;;;;4986621;28;20211;-77
2023/12/21 04:21:09;;;;;;;3.10;1.70;;;;;;;;;;4987779;28;20223;-77
2023/12/21 04:23:35;;;;;;;1.70;1.30;;;;;;;;;;4957680;28;20254;-78
2023/12/21 04:26:01;;;;;;;2.43;1.47;;;;;;;;;;4988950;28;20202;-77
2023/12/21 04:28:27;;;;;;;1.63;1.37;;;;;;;;;;4988845;28;20267;-77
2023/12/21 04:30:54;;;;;;;2.50;1.40;;;;;;;;;;4987665;28;20231;-78
2023/12/21 04:33:20;;;;;;;1.40;1.30;;;;;;;;;;4988540;28;20519;-77
2023/12/21 04:35:46;;;;;;;1.30;1.20;;;;;;;;;;4985672;28;20617;-77
2023/12/21 04:38:12;;;;;;;2.97;1.20;;;;;;;;;;4989044;28;20180;-79
2023/12/21 04:40:38;;;;;;;1.57;1.30;;;;;;;;;;4988026;28;20576;-77
2023/12/21 04:43:06;;;;;;;1.60;1.40;;;;;;;;;;4987500;28;20558;-77
2023/12/21 04:45:32;;;;;;;1.77;1.33;;;;;;;;;;4986533;28;20184;-78
2023/12/21 04:47:59;;;;;;;1.70;1.30;;;;;;;;;;4986458;28;20184;-78
2023/12/21 04:50:25;;;;;;;2.80;1.57;;;;;;;;;;4988453;28;20574;-77
2023/12/21 04:52:52;;;;;;;1.20;1.10;;;;;;;;;;4987667;28;20188;-77
2023/12/21 04:55:18;;;;;;;1.67;1.33;;;;;;;;;;4987145;28;20187;-77
2023/12/21 04:57:45;;;;;;;1.97;1.30;;;;;;;;;;4982637;28;20778;-78
2023/12/21 05:00:11;;;;;;;1.77;1.50;;;;;;;;;;4990954;28;20231;-77
2023/12/21 05:02:38;;;;;;;2.63;1.50;;;;;;;;;;4987746;28;20219;-77
2023/12/21 05:05:04;;;;;;;1.67;1.40;;;;;;;;;;4989780;28;20253;-77
2023/12/21 05:07:31;;;;;;;1.53;1.30;;;;;;;;;;4988899;28;20191;-77
2023/12/21 05:09:59;;;;;;;2.30;1.50;;;;;;;;;;4984869;28;20223;-80
2023/12/21 05:12:28;;;;;;;3.00;1.30;;;;;;;;;;4987211;28;20740;-77
2023/12/21 05:14:54;;;;;;;1.50;1.20;;;;;;;;;;4969034;28;20617;-77
2023/12/21 05:17:20;;;;;;;3.07;1.30;;;;;;;;;;4987961;28;20196;-78
2023/12/21 05:19:46;;;;;;;2.17;1.00;;;;;;;;;;4970914;28;20338;-77
2023/12/21 05:22:12;;;;;;;2.20;1.43;;;;;;;;;;4983044;28;20615;-77
2023/12/21 05:24:39;;;;;;;1.67;1.30;;;;;;;;;;4988130;28;20258;-77
2023/12/21 05:27:06;;;;;;;1.83;1.30;;;;;;;;;;4985050;28;20609;-78
2023/12/21 05:29:32;;;;;;;1.50;1.40;;;;;;;;;;4985283;28;20187;-77
2023/12/21 05:31:58;;;;;;;1.43;1.33;;;;;;;;;;4983165;28;20188;-77
2023/12/21 05:34:24;;;;;;;1.87;1.13;;;;;;;;;;4985367;28;20275;-78
2023/12/21 05:36:51;;;;;;;1.93;1.20;;;;;;;;;;4986960;28;20649;-78
2023/12/21 05:39:17;;;;;;;3.17;1.23;;;;;;;;;;4989140;28;20190;-77
2023/12/21 05:41:43;;;;;;;1.70;1.20;;;;;;;;;;4985113;28;20269;-77
2023/12/21 05:44:09;;;;;;;1.33;1.10;;;;;;;;;;4987812;28;20184;-79
2023/12/21 05:46:35;;;;;;;1.93;1.10;;;;;;;;;;4993939;28;20194;-77
2023/12/21 05:49:02;;;;;;;1.67;1.10;;;;;;;;;;4993618;28;20264;-78
2023/12/21 05:51:28;;;;;;;1.33;1.20;;;;;;;;;;4988358;28;20298;-77
2023/12/21 05:53:54;;;;;;;1.20;1.10;;;;;;;;;;4987652;28;20691;-77
2023/12/21 05:56:20;;;;;;;1.97;1.23;;;;;;;;;;4984797;28;20191;-77
2023/12/21 05:58:46;;;;;;;1.67;1.20;;;;;;;;;;4987756;28;20561;-78
2023/12/21 06:01:12;;;;;;;1.40;1.30;;;;;;;;;;4984811;28;20643;-78
2023/12/21 06:03:39;;;;;;;1.60;1.10;;;;;;;;;;4983558;28;20184;-78
2023/12/21 06:06:05;;;;;;;1.40;1.00;;;;;;;;;;4988240;28;20198;-77
2023/12/21 06:08:32;;;;;;;1.60;1.00;;;;;;;;;;4983059;28;20800;-77
2023/12/21 06:10:58;;;;;;;1.57;0.90;;;;;;;;;;4967330;28;20376;-81
2023/12/21 06:13:24;;;;;;;1.53;1.00;;;;;;;;;;4984303;28;20211;-78
2023/12/21 06:15:50;;;;;;;6.53;1.30;;;;;;;;;;4987149;28;20234;-80
2023/12/21 06:18:16;;;;;;;1.10;1.00;;;;;;;;;;4983400;28;20330;-78
2023/12/21 06:20:42;;;;;;;1.17;0.90;;;;;;;;;;4969182;28;20215;-77
2023/12/21 06:23:08;;;;;;;1.20;0.77;;;;;;;;;;4986016;28;20183;-78
2023/12/21 06:25:35;;;;;;;0.80;0.80;;;;;;;;;;4988679;28;21329;-77
2023/12/21 06:28:01;;;;;;;0.83;0.80;;;;;;;;;;4990715;28;20191;-77
2023/12/21 06:30:27;;;;;;;7.73;1.07;;;;;;;;;;4991286;28;20214;-77
2023/12/21 06:32:54;;;;;;;1.70;0.80;;;;;;;;;;4974656;28;20638;-77
2023/12/21 06:35:20;;;;;;;1.27;0.80;;;;;;;;;;4975132;28;20245;-77
2023/12/21 06:37:46;;;;;;;1.77;0.80;;;;;;;;;;4990525;28;20208;-77
2023/12/21 06:40:12;;;;;;;0.80;0.80;;;;;;;;;;4991801;28;20622;-77
2023/12/21 06:42:38;;;;;;;0.70;0.70;;;;;;;;;;4989055;28;20219;-77
2023/12/21 06:45:05;;;;;;;0.93;0.70;;;;;;;;;;4989954;28;20865;-77
2023/12/21 06:47:31;;;;;;;0.80;0.80;;;;;;;;;;4988914;28;20185;-78
2023/12/21 06:49:57;;;;;;;1.27;0.80;;;;;;;;;;4990517;28;20204;-77
2023/12/21 06:52:23;;;;;;;0.73;0.73;;;;;;;;;;4991309;28;20270;-77
2023/12/21 06:54:49;;;;;;;0.87;0.87;;;;;;;;;;5004354;28;20266;-78
2023/12/21 06:57:16;;;;;;;1.67;0.90;;;;;;;;;;4990195;28;20271;-78
2023/12/21 06:59:42;;;;;;;0.80;0.80;;;;;;;;;;4991748;28;20176;-79
2023/12/21 07:02:08;;;;;;;1.13;0.80;;;;;;;;;;4981619;28;20282;-79
2023/12/21 07:04:35;;;;;;;1.10;1.00;;;;;;;;;;4981842;28;20223;-79
2023/12/21 07:07:01;;;;;;;0.80;0.80;;;;;;;;;;4985583;28;20184;-78
2023/12/21 07:09:27;;;;;;;0.80;0.70;;;;;;;;;;4991938;28;20190;-78
2023/12/21 07:11:55;;;;;;;1.35;0.82;;;;;;;;;;4987737;28;20951;-78
2023/12/21 07:14:21;;;;;;;0.80;0.80;;;;;;;;;;4987023;28;21071;-79
2023/12/21 07:16:48;;;;;;;0.80;0.80;;;;;;;;;;4990117;28;20184;-78
2023/12/21 07:19:14;;;;;;;0.70;0.70;;;;;;;;;;4977058;28;20199;-78
2023/12/21 07:21:40;;;;;;;1.23;0.90;;;;;;;;;;4989631;28;20204;-78
2023/12/21 07:24:06;;;;;;;1.17;0.80;;;;;;;;;;4989370;28;20278;-79
2023/12/21 07:26:32;;;;;;;2.13;0.87;;;;;;;;;;4971376;28;20188;-77
2023/12/21 07:28:58;;;;;;;1.40;0.90;;;;;;;;;;4973872;28;20180;-78
2023/12/21 07:31:24;;;;;;;1.00;0.90;;;;;;;;;;4977349;28;20624;-78
2023/12/21 07:33:51;;;;;;;0.80;0.80;;;;;;;;;;4990218;28;20184;-79
2023/12/21 07:36:17;;;;;;;0.97;0.80;;;;;;;;;;4991928;28;20203;-78
2023/12/21 07:38:43;;;;;;;0.90;0.80;;;;;;;;;;4984200;28;20183;-78
2023/12/21 07:41:10;;;;;;;0.80;0.80;;;;;;;;;;4989719;28;20291;-77
2023/12/21 07:43:41;;;;;;;1.00;0.80;;;;;;;;;;4990189;28;20188;-78
2023/12/21 07:46:09;;;;;;;0.97;0.90;;;;;;;;;;5009340;28;20188;-78
2023/12/21 07:48:35;;;;;;;1.30;0.90;;;;;;;;;;4990132;28;20267;-78
2023/12/21 07:51:01;;;;;;;0.80;0.80;;;;;;;;;;4988265;28;20304;-78
2023/12/21 07:53:27;;;;;;;0.80;0.80;;;;;;;;;;4989803;28;20207;-78
2023/12/21 07:55:53;;;;;;;0.90;0.80;;;;;;;;;;4990887;28;20176;-78
2023/12/21 07:58:20;;;;;;;1.17;0.97;;;;;;;;;;4973776;28;20184;-78
2023/12/21 08:00:46;;;;;;;0.97;0.93;;;;;;;;;;4988427;28;20291;-78
2023/12/21 08:03:12;;;;;;;1.40;0.90;;;;;;;;;;4988089;28;20286;-78
2023/12/21 08:05:38;;;;;;;0.83;0.80;;;;;;;;;;4991451;28;20196;-78
2023/12/21 08:08:05;;;;;;;0.70;0.70;;;;;;;;;;4973595;28;20195;-78
2023/12/21 08:10:31;;;;;;;2.03;1.20;;;;;;;;;;4989140;28;20204;-78
2023/12/21 08:12:58;;;;;;;1.10;1.00;;;;;;;;;;4984509;28;20208;-78
2023/12/21 08:15:27;;;;;;;1.00;0.90;;;;;;;;;;4991442;28;20692;-79
2023/12/21 08:17:56;;;;;;;1.10;1.00;;;;;;;;;;4986842;28;20191;-78
2023/12/21 08:20:25;;;;;;;1.00;0.90;;;;;;;;;;4988200;28;20224;-79
2023/12/21 08:22:51;;;;;;;1.00;0.90;;;;;;;;;;4990136;28;20215;-78
2023/12/21 08:25:17;;;;;;;0.93;0.87;;;;;;;;;;4992145;28;20195;-78
2023/12/21 08:27:43;;;;;;;1.17;1.07;;;;;;;;;;4991620;28;20263;-78
2023/12/21 08:30:10;;;;;;;0.97;0.90;;;;;;;;;;4991418;28;20670;-78
2023/12/21 08:32:36;;;;;;;1.13;0.90;;;;;;;;;;4989254;28;20666;-78
2023/12/21 08:35:04;;;;;;;0.90;0.80;;;;;;;;;;4993210;28;20851;-79
2023/12/21 08:37:30;;;;;;;0.90;0.90;;;;;;;;;;4990048;28;20188;-78
2023/12/21 08:39:56;;;;;;;1.20;0.80;;;;;;;;;;4992056;28;20746;-78
2023/12/21 08:42:23;;;;;;;1.63;1.20;;;;;;;;;;4989610;28;20208;-79
2023/12/21 08:44:49;;;;;;;0.70;0.70;;;;;;;;;;4992164;28;20180;-78
2023/12/21 08:47:15;;;;;;;0.80;0.80;;;;;;;;;;4990309;28;20185;-78
2023/12/21 08:49:41;;;;;;;1.10;1.00;;;;;;;;;;4990855;28;20184;-79
2023/12/21 08:52:09;;;;;;;1.00;0.87;;;;;;;;;;4988716;28;20188;-78
2023/12/21 08:54:36;;;;;;;1.30;1.10;;;;;;;;;;4990052;28;20787;-80
2023/12/21 08:57:02;;;;;;;3.60;1.20;;;;;;;;;;4969407;28;20188;-80
2023/12/21 08:59:28;;;;;;;1.00;0.90;;;;;;;;;;4986452;28;20195;-81
2023/12/21 09:01:55;;;;;;;1.20;1.10;;;;;;;;;;4989888;28;20238;-80
2023/12/21 09:04:21;;;;;;;0.80;0.80;;;;;;;;;;4989407;28;20575;-81
2023/12/21 09:06:48;;;;;;;1.33;0.90;;;;;;;;;;4973610;28;20183;-83
2023/12/21 09:09:15;;;;;;;0.87;0.87;;;;;;;;;;4975101;28;20211;-83
2023/12/21 09:11:41;;;;;;;0.70;0.70;;;;;;;;;;4963014;28;20197;-83
2023/12/21 09:14:07;;;;;;;0.90;0.90;;;;;;;;;;4987880;28;20207;-84
2023/12/21 09:16:34;;;;;;;1.53;1.10;;;;;;;;;;4989337;28;20179;-84
2023/12/21 09:19:00;;;;;;;1.97;1.20;;;;;;;;;;4987733;28;20209;-84
2023/12/21 09:21:27;;;;;;;2.27;1.40;;;;;;;;;;4965693;28;20226;-83
2023/12/21 09:23:53;;;;;;;0.90;0.80;;;;;;;;;;4988287;28;20536;-84
2023/12/21 09:26:19;;;;;;;1.03;0.77;;;;;;;;;;4972595;28;20188;-84
2023/12/21 09:28:45;;;;;;;0.60;0.60;;;;;;;;;;4969632;28;20600;-83
2023/12/21 09:31:11;;;;;;;1.17;0.70;;;;;;;;;;4980593;28;20247;-83
2023/12/21 09:33:39;;;;;;;1.40;0.77;;;;;;;;;;4974835;28;20267;-83
2023/12/21 09:36:06;;;;;;;1.07;0.70;;;;;;;;;;4972670;28;20192;-84
2023/12/21 09:38:33;;;;;;;0.70;0.70;;;;;;;;;;4985160;28;20191;-77
2023/12/21 09:40:59;;;;;;;0.83;0.60;;;;;;;;;;4968992;28;20239;-80
2023/12/21 09:43:27;;;;;;;0.70;0.70;;;;;;;;;;4988163;28;20210;-80
2023/12/21 09:45:54;;;;;;;1.50;0.80;;;;;;;;;;4965663;28;20394;-81
2023/12/21 09:48:21;;;;;;;0.60;0.60;;;;;;;;;;4986366;28;20274;-78
2023/12/21 09:50:51;;;;;;;3.53;0.80;;;;;;;;;;4983371;28;20260;-78
2023/12/21 09:53:21;;;;;;;0.87;0.87;;;;;;;;;;4986795;28;20190;-76
2023/12/21 09:55:48;;;;;;;2.10;0.90;;;;;;;;;;4987678;28;20630;-82
2023/12/21 09:58:15;;;;;;;0.70;0.70;;;;;;;;;;4967347;28;20191;-82
2023/12/21 10:00:41;;;;;;;1.30;1.10;;;;;;;;;;4982706;28;20207;-82
2023/12/21 10:03:08;;;;;;;1.53;0.80;;;;;;;;;;4984372;28;20362;-82
2023/12/21 10:05:34;;;;;;;0.60;0.60;;;;;;;;;;4972126;28;20202;-82
2023/12/21 10:08:00;;;;;;;1.43;0.70;;;;;;;;;;4969186;28;20196;-82
2023/12/21 10:10:27;;;;;;;0.90;0.90;;;;;;;;;;4971892;28;20206;-82
2023/12/21 10:12:53;;;;;;;0.80;0.80;;;;;;;;;;4971505;28;20626;-82
2023/12/21 10:15:20;;;;;;;2.13;0.70;;;;;;;;;;4969750;28;20188;-82
2023/12/21 10:17:47;;;;;;;1.00;0.90;;;;;;;;;;4989603;28;20211;-82
2023/12/21 10:20:13;;;;;;;0.90;0.80;;;;;;;;;;4973931;28;20546;-82
2023/12/21 10:22:40;;;;;;;0.73;0.73;;;;;;;;;;4970718;28;20299;-83
2023/12/21 10:25:08;;;;;;;1.00;0.80;;;;;;;;;;4971471;28;20608;-83
2023/12/21 10:27:35;;;;;;;0.73;0.73;;;;;;;;;;4985942;28;20603;-78
2023/12/21 10:30:01;;;;;;;1.40;0.80;;;;;;;;;;4986949;28;20200;-83
2023/12/21 10:32:29;;;;;;;0.90;0.77;;;;;;;;;;4971597;28;20444;-83
2023/12/21 10:34:58;;;;;;;1.23;0.97;;;;;;;;;;4967513;28;20188;-81
2023/12/21 10:37:24;;;;;;;0.90;0.60;;;;;;;;;;4965850;28;20350;-81
2023/12/21 10:39:51;;;;;;;0.73;0.60;;;;;;;;;;4983830;28;20219;-80
2023/12/21 10:42:17;;;;;;;0.90;0.77;;;;;;;;;;4988226;28;20215;-81
2023/12/21 10:44:44;;;;;;;1.53;0.70;;;;;;;;;;4983911;28;20180;-81
2023/12/21 10:47:11;;;;;;;0.70;0.70;;;;;;;;;;4990310;28;20188;-80
2023/12/21 10:49:40;;;;;;;0.60;0.60;;;;;;;;;;4997486;28;20209;-77
2023/12/21 10:52:06;;;;;;;0.80;0.80;;;;;;;;;;4987809;28;20196;-77
2023/12/21 10:54:33;;;;;;;1.03;0.90;;;;;;;;;;4985947;28;20311;-77
2023/12/21 10:57:00;;;;;;;0.80;0.80;;;;;;;;;;4966360;28;20286;-77
2023/12/21 10:59:27;;;;;;;1.33;1.07;;;;;;;;;;4983621;28;20204;-78
2023/12/21 11:01:54;;;;;;;1.13;0.90;;;;;;;;;;4980073;28;20216;-79
2023/12/21 11:04:21;;;;;;;1.03;0.80;;;;;;;;;;4963684;28;20193;-79
2023/12/21 11:06:47;;;;;;;1.37;0.73;;;;;;;;;;4981282;28;20777;-73
2023/12/21 11:09:18;;;;;;;2.17;0.80;;;;;;;;;;4986165;28;20180;-77
2023/12/21 11:11:48;;;;;;;1.30;0.80;;;;;;;;;;4987908;28;20204;-79
2023/12/21 11:14:17;;;;;;;0.70;0.70;;;;;;;;;;4956647;28;20207;-78
2023/12/21 11:16:43;;;;;;;0.60;0.60;;;;;;;;;;4969517;28;20180;-77
2023/12/21 11:19:11;;;;;;;0.67;0.63;;;;;;;;;;4988198;28;20188;-79
2023/12/21 11:21:38;;;;;;;1.73;1.00;;;;;;;;;;4985789;28;20211;-76
2023/12/21 11:24:04;;;;;;;1.77;0.90;;;;;;;;;;4989994;28;20180;-76
2023/12/21 11:26:31;;;;;;;0.67;0.67;;;;;;;;;;4970279;28;20281;-75
2023/12/21 11:29:08;;;;;;;0.60;0.60;;;;;;;;;;4983696;28;20184;-78
2023/12/21 11:31:38;;;;;;;0.60;0.60;;;;;;;;;;4984820;28;20209;-77
2023/12/21 11:34:15;;;;;;;0.70;0.70;;;;;;;;;;4991231;28;20179;-76
2023/12/21 11:36:42;;;;;;;0.80;0.60;;;;;;;;;;4990538;28;20196;-75
2023/12/21 11:39:15;;;;;;;0.50;0.50;;;;;;;;;;4989159;28;20262;-75
2023/12/21 11:41:57;;;;;;;0.83;0.53;;;;;;;;;;4987015;28;20599;-77
2023/12/21 11:44:23;;;;;;;0.57;0.57;;;;;;;;;;5004472;28;20230;-76
2023/12/21 11:46:50;;;;;;;0.87;0.50;;;;;;;;;;4983422;28;20274;-74
2023/12/21 11:49:26;;;;;;;0.87;0.60;;;;;;;;;;4984757;28;20206;-74
2023/12/21 11:51:52;;;;;;;0.67;0.60;;;;;;;;;;4983247;28;20282;-80
2023/12/21 11:54:19;;;;;;;0.70;0.60;;;;;;;;;;4987043;28;20211;-75
2023/12/21 11:56:46;;;;;;;1.07;0.97;;;;;;;;;;4989340;28;20680;-76
2023/12/21 11:59:14;;;;;;;1.23;1.07;;;;;;;;;;4987908;28;20250;-75
2023/12/21 12:01:41;;;;;;;1.00;0.60;;;;;;;;;;4987465;28;20613;-76
2023/12/21 12:04:11;;;;;;;0.63;0.63;;;;;;;;;;4987872;28;20271;-74
2023/12/21 12:06:38;;;;;;;0.70;0.70;;;;;;;;;;4988532;28;20342;-75
2023/12/21 12:09:05;;;;;;;0.70;0.70;;;;;;;;;;4985472;28;20176;-76
2023/12/21 12:11:32;;;;;;;1.23;0.70;;;;;;;;;;4987613;28;20274;-76
2023/12/21 12:13:58;;;;;;;0.50;0.50;;;;;;;;;;4989369;28;20294;-76
2023/12/21 12:16:24;;;;;;;0.70;0.47;;;;;;;;;;4988479;28;20722;-76
2023/12/21 12:18:51;;;;;;;0.77;0.60;;;;;;;;;;4988624;28;20270;-76
2023/12/21 12:21:17;;;;;;;0.60;0.60;;;;;;;;;;4991336;28;20302;-76
2023/12/21 12:23:49;;;;;;;0.80;0.70;;;;;;;;;;4988874;28;20183;-76
2023/12/21 12:26:16;;;;;;;0.50;0.50;;;;;;;;;;4984708;28;20176;-78
2023/12/21 12:28:42;;;;;;;0.50;0.50;;;;;;;;;;4986347;28;20255;-77
2023/12/21 12:31:08;;;;;;;1.03;0.60;;;;;;;;;;4999975;28;20208;-76
2023/12/21 12:33:37;;;;;;;0.50;0.50;;;;;;;;;;4988731;28;20199;-76
2023/12/21 12:36:09;;;;;;;0.53;0.53;;;;;;;;;;4988620;28;20192;-78
2023/12/21 12:38:36;;;;;;;0.60;0.50;;;;;;;;;;4980497;28;20267;-77
2023/12/21 12:41:02;;;;;;;1.20;0.60;;;;;;;;;;4968409;28;20200;-75
2023/12/21 12:43:34;;;;;;;0.53;0.53;;;;;;;;;;4983269;28;20795;-76
2023/12/21 12:46:00;;;;;;;2.03;0.57;;;;;;;;;;4989231;28;20218;-76
2023/12/21 12:48:26;;;;;;;0.53;0.53;;;;;;;;;;4987284;28;20188;-76
2023/12/21 12:50:57;;;;;;;0.50;0.50;;;;;;;;;;4986161;28;20208;-76
2023/12/21 12:53:24;;;;;;;0.40;0.40;;;;;;;;;;4986224;28;20188;-77
2023/12/21 12:55:55;;;;;;;0.60;0.60;;;;;;;;;;4990853;28;20588;-76
2023/12/21 12:58:23;;;;;;;2.00;0.60;;;;;;;;;;4988724;28;20191;-77
2023/12/21 13:00:50;;;;;;;0.57;0.57;;;;;;;;;;4986684;28;20227;-77
2023/12/21 13:03:16;;;;;;;0.60;0.60;;;;;;;;;;4989792;28;20278;-76
2023/12/21 13:05:42;;;;;;;1.23;0.70;;;;;;;;;;4984043;28;20723;-77
2023/12/21 13:08:08;;;;;;;0.73;0.73;;;;;;;;;;4992558;28;20203;-76
2023/12/21 13:10:35;;;;;;;0.70;0.70;;;;;;;;;;4991430;28;20286;-76
2023/12/21 13:13:01;;;;;;;1.03;0.80;;;;;;;;;;4987570;28;20191;-78
2023/12/21 13:15:27;;;;;;;1.20;0.70;;;;;;;;;;4987252;28;20194;-76
2023/12/21 13:17:54;;;;;;;1.50;0.70;;;;;;;;;;4987710;28;20210;-76
2023/12/21 13:20:20;;;;;;;0.80;0.80;;;;;;;;;;4992981;28;20214;-77
2023/12/21 13:22:47;;;;;;;1.40;0.70;;;;;;;;;;4986237;28;20219;-76
2023/12/21 13:25:16;;;;;;;0.80;0.60;;;;;;;;;;4984143;28;20268;-76
2023/12/21 13:27:42;;;;;;;1.00;0.67;;;;;;;;;;4980460;28;20842;-76
2023/12/21 13:30:10;;;;;;;0.70;0.70;;;;;;;;;;4984364;28;20903;-76
2023/12/21 13:32:37;;;;;;;3.77;3.03;;;;;;;;;;4984279;28;20635;-76
2023/12/21 13:35:03;;;;;;;2.43;2.23;;;;;;;;;;4985135;28;20219;-76
2023/12/21 13:37:30;;;;;;;1.00;0.90;;;;;;;;;;4984486;28;20652;-76
2023/12/21 13:39:57;;;;;;;1.30;0.70;;;;;;;;;;4968326;28;20215;-76
2023/12/21 13:42:23;;;;;;;1.40;0.80;;;;;;;;;;4980546;28;20227;-76
2023/12/21 13:44:49;;;;;;;0.80;0.80;;;;;;;;;;4969197;28;20654;-77
2023/12/21 13:47:17;;;;;;;0.70;0.70;;;;;;;;;;4984201;28;20246;-76
2023/12/21 13:49:43;;;;;;;0.70;0.70;;;;;;;;;;4958113;28;20181;-76
2023/12/21 13:52:09;;;;;;;3.03;2.60;;;;;;;;;;4985133;28;20675;-76
2023/12/21 13:54:36;;;;;;;2.40;1.20;;;;;;;;;;4985061;28;20632;-76
2023/12/21 13:57:03;;;;;;;2.10;1.90;;;;;;;;;;4984874;28;20188;-77
2023/12/21 13:59:29;;;;;;;1.50;1.00;;;;;;;;;;4985465;28;20187;-76
2023/12/21 14:01:55;;;;;;;1.30;1.20;;;;;;;;;;4981073;28;20215;-76
2023/12/21 14:04:21;;;;;;;3.03;2.63;;;;;;;;;;4986933;28;21330;-76
2023/12/21 14:06:48;;;;;;;2.13;1.70;;;;;;;;;;4984727;28;20964;-76
2023/12/21 14:09:14;;;;;;;1.27;0.80;;;;;;;;;;4969674;28;20188;-78
2023/12/21 14:11:40;;;;;;;1.90;1.70;;;;;;;;;;4985054;28;20595;-77
2023/12/21 14:14:06;;;;;;;3.13;1.17;;;;;;;;;;4969232;28;20302;-77
2023/12/21 14:16:32;;;;;;;0.80;0.80;;;;;;;;;;4983979;28;20188;-76
2023/12/21 14:18:58;;;;;;;0.80;0.70;;;;;;;;;;4967678;28;20254;-76
2023/12/21 14:21:25;;;;;;;0.70;0.70;;;;;;;;;;4981958;28;20285;-77
2023/12/21 14:23:51;;;;;;;8.07;6.40;;;;;;;;;;4984400;28;20241;-76
2023/12/21 14:26:18;;;;;;;1.70;1.60;;;;;;;;;;4985590;28;20187;-77
2023/12/21 14:28:46;;;;;;;1.10;1.00;;;;;;;;;;4985270;28;20656;-76
2023/12/21 14:31:12;;;;;;;0.93;0.93;;;;;;;;;;4982752;28;20608;-76
2023/12/21 14:33:38;;;;;;;1.40;1.30;;;;;;;;;;4968673;28;20195;-76
2023/12/21 14:36:04;;;;;;;1.23;1.10;;;;;;;;;;4985361;28;20656;-76
2023/12/21 14:38:31;;;;;;;2.77;1.83;;;;;;;;;;4985048;28;20210;-75
2023/12/21 14:40:57;;;;;;;3.77;2.53;;;;;;;;;;4986465;28;20213;-76